Time;durP1;ratioP1;P1;durP2;ratioP2;P2;SDS_P1;SDS_P2;PMS_P1;PMS_P2;Temp;Humidity;BMP_temperature;BMP_pressure;BME280_temperature;BME280_humidity;BME280_pressure;Samples;Min_cycle;Max_cycle;Signal;HPM_P1;HPM_P2
2022/07/29 00:02:00;;;;;;;6.72;4.32;;;;;;;;;;4969929;28;20047;-73
2022/07/29 00:04:30;;;;;;;5.20;3.22;;;;;;;;;;4970967;28;20529;-74
2022/07/29 00:07:00;;;;;;;5.40;3.03;;;;;;;;;;4970375;28;20057;-74
2022/07/29 00:09:31;;;;;;;4.72;3.17;;;;;;;;;;4970224;28;20065;-76
2022/07/29 00:12:24;;;;;;;6.13;2.88;;;;;;;;;;4970043;28;20043;-75
2022/07/29 00:14:55;;;;;;;4.13;2.67;;;;;;;;;;4970265;28;20058;-74
2022/07/29 00:17:26;;;;;;;5.18;2.75;;;;;;;;;;4969175;28;20059;-74
2022/07/29 00:19:56;;;;;;;4.00;2.70;;;;;;;;;;4969620;28;20070;-74
2022/07/29 00:22:25;;;;;;;5.28;3.20;;;;;;;;;;4969107;28;20127;-73
2022/07/29 00:24:55;;;;;;;8.32;2.42;;;;;;;;;;4969606;28;20046;-74
2022/07/29 00:27:25;;;;;;;5.05;2.42;;;;;;;;;;4969452;28;20489;-74
2022/07/29 00:29:55;;;;;;;9.05;2.90;;;;;;;;;;4968776;28;20055;-74
2022/07/29 00:32:25;;;;;;;6.53;2.53;;;;;;;;;;4970313;28;20054;-74
2022/07/29 00:37:43;;;;;;;3.08;1.48;;;;;;;;;;4970014;28;20421;-74
2022/07/29 00:40:13;;;;;;;3.28;1.80;;;;;;;;;;4969503;28;20422;-74
2022/07/29 00:42:49;;;;;;;3.95;1.67;;;;;;;;;;4969083;28;20070;-74
2022/07/29 00:45:19;;;;;;;2.55;1.63;;;;;;;;;;4969102;28;20055;-75
2022/07/29 00:47:50;;;;;;;2.65;1.20;;;;;;;;;;4951860;28;20592;-72
2022/07/29 00:50:20;;;;;;;1.63;1.20;;;;;;;;;;4962261;28;20406;-73
2022/07/29 00:52:51;;;;;;;4.82;1.42;;;;;;;;;;4962617;28;20054;-72
2022/07/29 00:55:22;;;;;;;1.85;1.40;;;;;;;;;;4969515;28;20050;-72
2022/07/29 00:57:53;;;;;;;2.58;1.42;;;;;;;;;;4969451;28;20062;-73
2022/07/29 01:00:26;;;;;;;0.90;0.90;;;;;;;;;;4952483;28;20050;-74
2022/07/29 01:02:57;;;;;;;2.45;1.00;;;;;;;;;;4958107;28;20055;-74
2022/07/29 01:05:29;;;;;;;2.65;0.93;;;;;;;;;;4958201;28;20745;-76
2022/07/29 01:08:20;;;;;;;2.78;1.10;;;;;;;;;;4959182;28;20047;-73
2022/07/29 01:10:52;;;;;;;1.00;0.90;;;;;;;;;;4955388;28;20047;-74
2022/07/29 01:13:22;;;;;;;1.50;0.98;;;;;;;;;;4947916;29;20047;-73
2022/07/29 01:16:01;;;;;;;1.67;1.38;;;;;;;;;;4948042;29;20058;-74
2022/07/29 01:18:37;;;;;;;2.30;1.27;;;;;;;;;;4947976;29;20042;-75
2022/07/29 01:21:36;;;;;;;1.23;0.90;;;;;;;;;;4948100;29;20055;-72
2022/07/29 01:24:10;;;;;;;1.48;1.20;;;;;;;;;;4948168;29;20047;-72
2022/07/29 01:27:06;;;;;;;2.30;1.30;;;;;;;;;;4946742;29;20537;-73
2022/07/29 01:29:44;;;;;;;1.20;0.85;;;;;;;;;;4944134;29;20055;-73
2022/07/29 01:32:20;;;;;;;2.53;0.50;;;;;;;;;;4949025;29;20058;-73
2022/07/29 01:35:22;;;;;;;0.40;0.25;;;;;;;;;;4931635;29;20055;-74
2022/07/29 01:38:05;;;;;;;2.78;0.20;;;;;;;;;;4947137;29;20050;-73
2022/07/29 01:40:41;;;;;;;1.27;0.47;;;;;;;;;;4948660;29;20062;-73
2022/07/29 01:43:16;;;;;;;2.58;0.30;;;;;;;;;;4949085;29;20051;-74
2022/07/29 01:45:53;;;;;;;0.22;0.13;;;;;;;;;;4949250;29;20051;-74
2022/07/29 01:48:39;;;;;;;1.40;0.20;;;;;;;;;;4948222;29;20055;-73
2022/07/29 01:51:43;;;;;;;0.52;0.10;;;;;;;;;;4947348;29;20046;-72
2022/07/29 01:54:19;;;;;;;1.33;0.30;;;;;;;;;;4948073;29;20439;-73
2022/07/29 01:56:51;;;;;;;0.32;0.30;;;;;;;;;;4949284;29;20466;-75
2022/07/29 01:59:23;;;;;;;0.93;0.20;;;;;;;;;;4948148;29;20171;-74
2022/07/29 02:01:58;;;;;;;1.52;0.30;;;;;;;;;;4949427;29;20043;-74
2022/07/29 02:04:30;;;;;;;0.20;0.17;;;;;;;;;;4948931;29;20043;-72
2022/07/29 02:07:05;;;;;;;2.55;0.30;;;;;;;;;;4949153;29;20051;-73
2022/07/29 02:09:38;;;;;;;0.20;0.20;;;;;;;;;;4948548;29;20055;-72
2022/07/29 02:12:09;;;;;;;0.65;0.60;;;;;;;;;;4948947;29;20520;-73
2022/07/29 02:14:44;;;;;;;0.30;0.30;;;;;;;;;;4949289;29;20050;-74
2022/07/29 02:17:21;;;;;;;0.20;0.20;;;;;;;;;;4948977;29;20047;-74
2022/07/29 02:19:53;;;;;;;0.98;0.22;;;;;;;;;;4948945;29;20062;-73
2022/07/29 02:22:25;;;;;;;0.10;0.10;;;;;;;;;;4949249;29;20506;-73
2022/07/29 02:24:57;;;;;;;0.63;0.28;;;;;;;;;;4931079;29;20066;-73
2022/07/29 02:27:29;;;;;;;0.13;0.13;;;;;;;;;;4949081;29;20039;-75
2022/07/29 02:30:03;;;;;;;1.42;0.30;;;;;;;;;;4948037;29;20062;-73
2022/07/29 02:32:35;;;;;;;0.55;0.20;;;;;;;;;;4948934;29;20701;-72
2022/07/29 02:35:09;;;;;;;0.20;0.20;;;;;;;;;;4949182;29;20047;-73
2022/07/29 02:37:41;;;;;;;0.52;0.30;;;;;;;;;;4948817;29;20046;-73
2022/07/29 02:40:15;;;;;;;0.30;0.30;;;;;;;;;;4949647;29;20059;-73
2022/07/29 02:42:47;;;;;;;1.17;0.35;;;;;;;;;;4948970;29;20411;-73
2022/07/29 02:45:17;;;;;;;0.85;0.50;;;;;;;;;;4948614;29;20054;-72
2022/07/29 02:47:50;;;;;;;0.85;0.57;;;;;;;;;;4933071;29;20054;-73
2022/07/29 02:50:38;;;;;;;0.85;0.80;;;;;;;;;;4952027;29;20116;-72
2022/07/29 02:53:16;;;;;;;0.90;0.75;;;;;;;;;;4952569;29;20050;-71
2022/07/29 02:55:59;;;;;;;0.85;0.85;;;;;;;;;;4952511;29;20403;-71
2022/07/29 02:58:34;;;;;;;3.55;1.70;;;;;;;;;;4952705;29;20050;-71
2022/07/29 03:01:13;;;;;;;1.23;1.02;;;;;;;;;;4951701;29;20059;-71
2022/07/29 03:03:51;;;;;;;5.10;1.38;;;;;;;;;;4952399;29;20051;-71
2022/07/29 03:06:25;;;;;;;2.85;1.23;;;;;;;;;;4952485;29;20062;-71
2022/07/29 03:09:08;;;;;;;2.00;1.35;;;;;;;;;;4951825;29;20059;-71
2022/07/29 03:11:42;;;;;;;1.90;1.27;;;;;;;;;;4952325;29;20515;-71
2022/07/29 03:14:19;;;;;;;1.20;1.02;;;;;;;;;;4952500;29;20043;-71
2022/07/29 03:16:50;;;;;;;6.68;1.20;;;;;;;;;;4952183;29;20054;-70
2022/07/29 03:19:21;;;;;;;2.28;1.48;;;;;;;;;;4951513;29;20047;-71
2022/07/29 03:21:51;;;;;;;2.80;1.20;;;;;;;;;;4951442;29;20066;-70
2022/07/29 03:24:32;;;;;;;1.75;0.98;;;;;;;;;;4951071;29;20105;-72
2022/07/29 03:27:04;;;;;;;1.05;0.80;;;;;;;;;;4952405;29;20546;-71
2022/07/29 03:29:34;;;;;;;4.47;1.20;;;;;;;;;;4935211;29;20051;-71
2022/07/29 03:32:06;;;;;;;2.67;1.00;;;;;;;;;;4952105;29;20395;-71
2022/07/29 03:34:37;;;;;;;2.00;1.02;;;;;;;;;;4951912;29;20054;-71
2022/07/29 03:37:08;;;;;;;1.80;1.23;;;;;;;;;;4951445;29;20047;-71
2022/07/29 03:39:41;;;;;;;0.98;0.88;;;;;;;;;;4951601;29;20043;-71
2022/07/29 03:42:15;;;;;;;2.38;0.50;;;;;;;;;;4951589;29;20385;-71
2022/07/29 03:44:48;;;;;;;3.65;0.77;;;;;;;;;;4951347;29;20047;-71
2022/07/29 03:47:23;;;;;;;1.10;0.60;;;;;;;;;;4951959;29;20070;-71
2022/07/29 03:50:15;;;;;;;2.25;0.60;;;;;;;;;;4951129;29;20047;-71
2022/07/29 03:52:46;;;;;;;2.20;0.70;;;;;;;;;;4951371;29;20078;-71
2022/07/29 03:55:16;;;;;;;0.60;0.50;;;;;;;;;;4951463;29;20054;-71
2022/07/29 03:57:48;;;;;;;1.95;0.50;;;;;;;;;;4934355;29;20055;-73
2022/07/29 04:00:19;;;;;;;2.55;0.55;;;;;;;;;;4950897;28;20047;-71
2022/07/29 04:02:50;;;;;;;1.75;0.30;;;;;;;;;;4951192;29;20404;-71
2022/07/29 04:05:21;;;;;;;0.50;0.50;;;;;;;;;;4950896;28;20359;-71
2022/07/29 04:07:50;;;;;;;0.70;0.70;;;;;;;;;;4950760;29;20043;-70
2022/07/29 04:10:20;;;;;;;0.40;0.40;;;;;;;;;;4950875;29;20055;-73
2022/07/29 04:13:00;;;;;;;2.10;0.43;;;;;;;;;;4951180;29;20055;-72
2022/07/29 04:15:30;;;;;;;0.60;0.50;;;;;;;;;;4951378;29;20594;-73
2022/07/29 04:18:00;;;;;;;0.63;0.52;;;;;;;;;;4950945;29;20043;-73
2022/07/29 04:20:30;;;;;;;0.80;0.60;;;;;;;;;;4950947;29;20051;-73
2022/07/29 04:23:00;;;;;;;0.55;0.50;;;;;;;;;;4950927;29;20055;-72
2022/07/29 04:25:29;;;;;;;0.35;0.32;;;;;;;;;;4951433;29;20502;-72
2022/07/29 04:28:02;;;;;;;0.47;0.30;;;;;;;;;;4951157;29;20085;-73
2022/07/29 04:30:34;;;;;;;1.80;0.80;;;;;;;;;;4933215;29;20082;-73
2022/07/29 04:33:06;;;;;;;0.40;0.40;;;;;;;;;;4951130;29;20051;-72
2022/07/29 04:35:38;;;;;;;0.65;0.40;;;;;;;;;;4951263;29;20510;-72
2022/07/29 04:38:20;;;;;;;0.60;0.57;;;;;;;;;;4950701;29;20058;-73
2022/07/29 04:40:50;;;;;;;3.17;0.60;;;;;;;;;;4950677;29;20051;-73
2022/07/29 04:43:19;;;;;;;;;;;;;;;;;;4950862;29;20511;-72
2022/07/29 04:45:51;;;;;;;1.00;0.60;;;;;;;;;;4950541;29;19926;-72
2022/07/29 04:48:20;;;;;;;;;;;;;;;;;;4951155;28;20047;-73
2022/07/29 04:50:57;;;;;;;1.40;0.70;;;;;;;;;;4950211;29;19934;-72
2022/07/29 04:53:26;;;;;;;0.95;0.88;;;;;;;;;;4950384;29;20055;-73
2022/07/29 04:55:56;;;;;;;;;;;;;;;;;;4951155;29;20624;-72
2022/07/29 04:58:26;;;;;;;2.20;0.70;;;;;;;;;;4949749;29;19930;-71
2022/07/29 05:00:56;;;;;;;1.02;0.52;;;;;;;;;;4950309;29;20051;-72
2022/07/29 05:03:26;;;;;;;0.70;0.63;;;;;;;;;;4950101;29;20084;-72
2022/07/29 05:05:56;;;;;;;0.50;0.50;;;;;;;;;;4948994;29;20434;-73
2022/07/29 05:08:26;;;;;;;0.43;0.43;;;;;;;;;;4950259;29;20051;-72
2022/07/29 05:10:56;;;;;;;0.57;0.45;;;;;;;;;;4949072;28;20052;-72
2022/07/29 05:13:40;;;;;;;2.13;0.50;;;;;;;;;;4934717;29;20051;-73
2022/07/29 05:16:14;;;;;;;0.68;0.38;;;;;;;;;;4950354;29;20388;-72
2022/07/29 05:18:44;;;;;;;3.90;0.50;;;;;;;;;;4949902;29;20051;-70
2022/07/29 05:21:14;;;;;;;0.60;0.60;;;;;;;;;;4932378;29;20055;-71
2022/07/29 05:23:44;;;;;;;0.65;0.52;;;;;;;;;;4948843;29;20511;-70
2022/07/29 05:26:14;;;;;;;0.20;0.20;;;;;;;;;;4949870;29;20051;-71
2022/07/29 05:28:44;;;;;;;0.88;0.50;;;;;;;;;;4949549;29;20047;-72
2022/07/29 05:31:14;;;;;;;0.40;0.40;;;;;;;;;;4949448;29;20626;-72
2022/07/29 05:33:44;;;;;;;0.47;0.47;;;;;;;;;;4949320;29;20066;-70
2022/07/29 05:36:13;;;;;;;1.60;0.50;;;;;;;;;;4949922;29;20120;-71
2022/07/29 05:38:43;;;;;;;0.40;0.40;;;;;;;;;;4950091;29;20059;-72
2022/07/29 05:41:14;;;;;;;0.65;0.60;;;;;;;;;;4948957;29;20066;-71
2022/07/29 05:43:43;;;;;;;;;;;;;;;;;;4950711;28;20039;-71
2022/07/29 05:46:13;;;;;;;0.40;0.40;;;;;;;;;;4949748;29;19929;-71
2022/07/29 05:48:43;;;;;;;0.43;0.30;;;;;;;;;;4949975;29;20516;-72
2022/07/29 05:51:13;;;;;;;;;;;;;;;;;;4949704;29;20051;-71
2022/07/29 05:53:44;;;;;;;0.50;0.50;;;;;;;;;;4949230;28;19926;-71
2022/07/29 05:56:14;;;;;;;0.82;0.40;;;;;;;;;;4949733;29;20104;-73
2022/07/29 05:58:43;;;;;;;0.65;0.57;;;;;;;;;;4949188;29;20051;-72
2022/07/29 06:01:14;;;;;;;0.20;0.20;;;;;;;;;;4932882;29;20047;-73
2022/07/29 06:03:44;;;;;;;0.63;0.57;;;;;;;;;;4948920;29;20055;-73
2022/07/29 06:06:13;;;;;;;;;;;;;;;;;;4949057;29;20502;-73
2022/07/29 06:08:43;;;;;;;1.60;0.77;;;;;;;;;;4949026;29;19929;-72
2022/07/29 06:11:13;;;;;;;0.57;0.57;;;;;;;;;;4949168;29;20058;-72
2022/07/29 06:13:43;;;;;;;1.92;0.80;;;;;;;;;;4949081;29;20062;-73
2022/07/29 06:16:13;;;;;;;1.33;0.80;;;;;;;;;;4948813;29;20062;-72
2022/07/29 06:18:57;;;;;;;0.65;0.60;;;;;;;;;;4948165;29;20636;-72
2022/07/29 06:21:27;;;;;;;1.63;0.70;;;;;;;;;;4948474;29;20054;-73
2022/07/29 06:23:56;;;;;;;0.65;0.60;;;;;;;;;;4948458;28;20062;-72
2022/07/29 06:26:26;;;;;;;1.48;0.50;;;;;;;;;;4948700;29;20058;-73
2022/07/29 06:28:59;;;;;;;0.88;0.60;;;;;;;;;;4948648;29;20392;-71
2022/07/29 06:31:29;;;;;;;0.65;0.65;;;;;;;;;;4948827;29;20525;-72
2022/07/29 06:34:00;;;;;;;1.05;0.77;;;;;;;;;;4948686;29;20374;-73
2022/07/29 06:36:34;;;;;;;1.05;0.75;;;;;;;;;;4949163;29;20047;-72
2022/07/29 06:39:06;;;;;;;1.08;0.75;;;;;;;;;;4949388;29;20059;-73
2022/07/29 06:41:37;;;;;;;0.70;0.70;;;;;;;;;;4948552;29;20054;-72
2022/07/29 06:44:10;;;;;;;1.15;1.00;;;;;;;;;;4931051;29;20066;-72
2022/07/29 06:46:41;;;;;;;0.95;0.82;;;;;;;;;;4948994;29;20385;-73
2022/07/29 06:49:12;;;;;;;1.48;1.02;;;;;;;;;;4930653;29;20055;-73
2022/07/29 06:51:43;;;;;;;1.42;0.73;;;;;;;;;;4948241;29;20058;-72
2022/07/29 06:54:14;;;;;;;1.80;0.90;;;;;;;;;;4949090;29;20058;-73
2022/07/29 06:56:45;;;;;;;1.20;0.65;;;;;;;;;;4948748;28;20043;-73
2022/07/29 06:59:14;;;;;;;0.80;0.80;;;;;;;;;;4948446;29;20128;-73
2022/07/29 07:01:45;;;;;;;1.10;1.00;;;;;;;;;;4948605;29;20059;-73
2022/07/29 07:04:15;;;;;;;1.00;0.90;;;;;;;;;;4948814;29;20414;-72
2022/07/29 07:06:45;;;;;;;2.55;1.10;;;;;;;;;;4948101;29;20043;-71
2022/07/29 07:09:15;;;;;;;0.95;0.88;;;;;;;;;;4948108;29;20054;-72
2022/07/29 07:11:44;;;;;;;;;;;;;;;;;;4948837;28;20051;-73
2022/07/29 07:14:17;;;;;;;1.10;0.75;;;;;;;;;;4948606;29;19926;-72
2022/07/29 07:16:49;;;;;;;0.98;0.90;;;;;;;;;;4931506;29;20039;-72
2022/07/29 07:19:22;;;;;;;1.75;1.00;;;;;;;;;;4948248;29;20048;-73
2022/07/29 07:21:53;;;;;;;1.58;1.05;;;;;;;;;;4948142;29;20050;-73
2022/07/29 07:24:23;;;;;;;1.70;0.90;;;;;;;;;;4931012;29;20503;-73
2022/07/29 07:26:52;;;;;;;0.47;0.40;;;;;;;;;;4930837;29;20423;-73
2022/07/29 07:29:23;;;;;;;1.38;1.05;;;;;;;;;;4948888;29;20039;-73
2022/07/29 07:31:54;;;;;;;1.90;0.88;;;;;;;;;;4948216;28;20491;-72
2022/07/29 07:34:29;;;;;;;0.85;0.70;;;;;;;;;;4948409;28;20198;-74
2022/07/29 07:37:00;;;;;;;0.75;0.75;;;;;;;;;;4951918;29;20051;-73
2022/07/29 07:39:29;;;;;;;1.10;1.00;;;;;;;;;;4951662;29;20055;-72
2022/07/29 07:41:59;;;;;;;;;;;;;;;;;;4952715;29;20050;-73
2022/07/29 07:44:30;;;;;;;0.73;0.70;;;;;;;;;;4951556;28;19926;-74
2022/07/29 07:46:59;;;;;;;;;;;;;;;;;;4952072;28;20418;-73
2022/07/29 07:49:36;;;;;;;1.08;0.95;;;;;;;;;;4951672;29;19934;-72
2022/07/29 07:52:09;;;;;;;0.88;0.82;;;;;;;;;;4951653;29;20066;-72
2022/07/29 07:54:39;;;;;;;0.82;0.73;;;;;;;;;;4951053;29;20058;-73
2022/07/29 07:57:09;;;;;;;1.60;0.90;;;;;;;;;;4951738;29;20047;-73
2022/07/29 07:59:39;;;;;;;2.20;0.80;;;;;;;;;;4951700;29;20047;-73
2022/07/29 08:02:10;;;;;;;2.42;1.00;;;;;;;;;;4951312;29;20059;-73
2022/07/29 08:04:40;;;;;;;2.42;1.00;;;;;;;;;;4950554;29;20054;-73
2022/07/29 08:07:10;;;;;;;2.85;0.80;;;;;;;;;;4950958;29;20058;-72
2022/07/29 08:09:40;;;;;;;0.77;0.77;;;;;;;;;;4951033;29;20534;-73
2022/07/29 08:12:10;;;;;;;1.45;1.23;;;;;;;;;;4951336;28;20062;-73
2022/07/29 08:14:40;;;;;;;3.05;0.80;;;;;;;;;;4951104;29;20042;-71
2022/07/29 08:17:10;;;;;;;1.13;0.63;;;;;;;;;;4951089;28;20533;-72
2022/07/29 08:19:41;;;;;;;0.77;0.60;;;;;;;;;;4951095;28;20047;-72
2022/07/29 08:22:13;;;;;;;0.70;0.70;;;;;;;;;;4935035;29;20053;-73
2022/07/29 08:24:43;;;;;;;2.05;1.30;;;;;;;;;;4950472;29;20055;-73
2022/07/29 08:27:13;;;;;;;3.35;0.93;;;;;;;;;;4950691;29;20047;-72
2022/07/29 08:30:04;;;;;;;4.40;0.90;;;;;;;;;;4950797;29;20047;-71
2022/07/29 08:32:34;;;;;;;1.35;0.88;;;;;;;;;;4950237;29;20352;-73
2022/07/29 08:35:23;;;;;;;1.70;0.88;;;;;;;;;;4936608;29;21230;-72
2022/07/29 08:37:56;;;;;;;0.95;0.80;;;;;;;;;;4950672;29;20410;-73
2022/07/29 08:40:28;;;;;;;1.63;0.98;;;;;;;;;;4950860;29;20423;-71
2022/07/29 08:43:09;;;;;;;1.67;0.90;;;;;;;;;;4950871;29;20043;-71
2022/07/29 08:45:52;;;;;;;0.95;0.63;;;;;;;;;;4950014;28;20055;-71
2022/07/29 08:48:24;;;;;;;2.80;0.98;;;;;;;;;;4950741;29;20050;-70
2022/07/29 08:50:56;;;;;;;1.10;0.90;;;;;;;;;;4950320;29;20050;-72
2022/07/29 08:53:28;;;;;;;1.20;0.77;;;;;;;;;;4932893;29;20059;-72
2022/07/29 08:55:59;;;;;;;7.03;4.22;;;;;;;;;;4933166;29;20055;-70
2022/07/29 08:58:33;;;;;;;1.85;1.20;;;;;;;;;;4950704;29;20054;-71
2022/07/29 09:01:07;;;;;;;0.90;0.75;;;;;;;;;;4950456;29;20411;-71
2022/07/29 09:03:41;;;;;;;2.15;1.92;;;;;;;;;;4950393;29;20074;-71
2022/07/29 09:06:17;;;;;;;0.95;0.82;;;;;;;;;;4950113;29;20047;-71
2022/07/29 09:08:48;;;;;;;1.10;1.00;;;;;;;;;;4949471;29;20502;-71
2022/07/29 09:11:18;;;;;;;1.65;1.13;;;;;;;;;;4949341;29;20054;-71
2022/07/29 09:13:49;;;;;;;1.15;0.75;;;;;;;;;;4949552;28;20395;-72
2022/07/29 09:16:19;;;;;;;2.33;1.77;;;;;;;;;;4950302;29;20047;-73
2022/07/29 09:19:27;;;;;;;1.30;0.90;;;;;;;;;;4932389;29;20074;-71
2022/07/29 09:21:59;;;;;;;1.88;0.90;;;;;;;;;;4949858;29;20060;-70
2022/07/29 09:24:47;;;;;;;2.03;0.95;;;;;;;;;;4949747;29;20499;-72
2022/07/29 09:27:20;;;;;;;2.17;1.42;;;;;;;;;;4949755;29;20047;-71
2022/07/29 09:30:10;;;;;;;2.13;1.40;;;;;;;;;;4949740;29;20044;-71
2022/07/29 09:33:00;;;;;;;3.28;1.17;;;;;;;;;;4949526;29;20051;-71
2022/07/29 09:35:32;;;;;;;2.75;1.20;;;;;;;;;;4932329;29;20055;-72
2022/07/29 09:38:12;;;;;;;2.85;1.83;;;;;;;;;;4949199;29;20047;-73
2022/07/29 09:40:57;;;;;;;4.82;1.70;;;;;;;;;;4949028;29;20073;-72
2022/07/29 09:43:34;;;;;;;2.85;1.63;;;;;;;;;;4950078;29;20399;-74
2022/07/29 09:46:11;;;;;;;3.10;1.58;;;;;;;;;;4949004;29;20043;-71
2022/07/29 09:48:42;;;;;;;1.50;1.00;;;;;;;;;;4949335;29;20652;-71
2022/07/29 09:51:19;;;;;;;1.73;1.30;;;;;;;;;;4948896;29;20058;-72
2022/07/29 09:53:57;;;;;;;2.50;1.65;;;;;;;;;;4949278;29;20051;-72
2022/07/29 09:56:40;;;;;;;;;;;;;;;;;;4949962;29;20467;-71
2022/07/29 09:59:11;;;;;;;2.22;1.42;;;;;;;;;;4948884;29;19949;-71
2022/07/29 10:01:42;;;;;;;2.80;1.20;;;;;;;;;;4949168;29;20055;-72
2022/07/29 10:04:11;;;;;;;;;;;;;;;;;;4949881;29;20048;-71
2022/07/29 10:06:59;;;;;;;2.72;1.80;;;;;;;;;;4949334;28;19923;-72
2022/07/29 10:09:34;;;;;;;3.53;1.92;;;;;;;;;;4949090;29;20051;-72
2022/07/29 10:12:16;;;;;;;3.50;1.80;;;;;;;;;;4948789;29;20051;-71
2022/07/29 10:14:47;;;;;;;3.20;1.60;;;;;;;;;;4949039;29;20062;-72
2022/07/29 10:17:19;;;;;;;5.25;1.90;;;;;;;;;;4949133;29;20043;-73
2022/07/29 10:19:49;;;;;;;3.10;1.42;;;;;;;;;;4948852;29;20051;-74
2022/07/29 10:22:19;;;;;;;4.20;1.67;;;;;;;;;;4948141;28;20511;-73
2022/07/29 10:25:10;;;;;;;2.25;1.50;;;;;;;;;;4947180;29;20636;-72
2022/07/29 10:27:40;;;;;;;3.15;2.80;;;;;;;;;;4947229;29;20549;-73
2022/07/29 10:30:09;;;;;;;;;;;;;;;;;;4949315;29;20399;-73
2022/07/29 10:32:48;;;;;;;2.70;1.90;;;;;;;;;;4932013;29;19929;-73
2022/07/29 10:35:58;;;;;;;2.33;1.02;;;;;;;;;;4948648;29;20506;-74
2022/07/29 10:38:54;;;;;;;2.17;0.70;;;;;;;;;;4931377;29;20511;-71
2022/07/29 10:41:34;;;;;;;8.20;1.85;;;;;;;;;;4931906;29;20685;-78
2022/07/29 10:44:17;;;;;;;1.23;0.95;;;;;;;;;;4948909;29;20051;-72
2022/07/29 10:46:52;;;;;;;3.40;1.77;;;;;;;;;;4948104;29;20499;-71
2022/07/29 10:49:25;;;;;;;2.38;1.58;;;;;;;;;;4948584;29;20054;-72
2022/07/29 10:52:01;;;;;;;;;;;;;;;;;;4949183;29;20066;-72
2022/07/29 10:54:39;;;;;;;2.72;1.70;;;;;;;;;;4948758;29;20425;-77
2022/07/29 10:57:20;;;;;;;2.05;1.42;;;;;;;;;;4949039;29;20048;-76
2022/07/29 11:00:15;;;;;;;3.38;1.70;;;;;;;;;;4948559;29;20055;-73
2022/07/29 11:02:50;;;;;;;2.15;1.20;;;;;;;;;;4947654;29;20056;-70
2022/07/29 11:05:23;;;;;;;3.33;1.38;;;;;;;;;;4948404;29;20043;-71
2022/07/29 11:08:13;;;;;;;1.10;1.00;;;;;;;;;;4948491;28;20415;-71
2022/07/29 11:10:50;;;;;;;1.73;0.80;;;;;;;;;;4951334;29;21021;-72
2022/07/29 11:13:47;;;;;;;2.63;1.42;;;;;;;;;;4951989;29;20411;-72
2022/07/29 11:16:21;;;;;;;5.35;1.75;;;;;;;;;;4952673;29;20062;-71
2022/07/29 11:19:14;;;;;;;3.55;1.50;;;;;;;;;;4952043;29;20826;-72
2022/07/29 11:22:09;;;;;;;2.28;1.48;;;;;;;;;;4952209;29;20055;-72
2022/07/29 11:24:44;;;;;;;1.45;0.88;;;;;;;;;;4951955;29;20047;-73
2022/07/29 11:27:22;;;;;;;1.63;1.17;;;;;;;;;;4950897;29;20059;-73
2022/07/29 11:30:01;;;;;;;3.58;1.58;;;;;;;;;;4950579;29;20058;-72
2022/07/29 11:32:40;;;;;;;2.30;1.25;;;;;;;;;;4951849;29;20047;-72
2022/07/29 11:35:17;;;;;;;2.97;1.83;;;;;;;;;;4951361;29;20054;-72
2022/07/29 11:38:23;;;;;;;1.98;1.60;;;;;;;;;;4952073;29;20054;-71
2022/07/29 11:41:24;;;;;;;2.03;1.13;;;;;;;;;;4952327;29;20529;-71
2022/07/29 11:44:00;;;;;;;5.75;1.77;;;;;;;;;;4951714;29;20471;-74
2022/07/29 11:46:48;;;;;;;3.88;2.20;;;;;;;;;;4950960;29;20043;-71
2022/07/29 11:49:27;;;;;;;1.70;1.13;;;;;;;;;;4951418;29;20533;-71
2022/07/29 11:52:02;;;;;;;3.40;1.25;;;;;;;;;;4951282;29;20051;-72
2022/07/29 11:54:54;;;;;;;2.33;1.33;;;;;;;;;;4950791;29;20070;-76
2022/07/29 11:57:29;;;;;;;1.95;1.30;;;;;;;;;;4951356;29;20081;-71
2022/07/29 12:00:08;;;;;;;2.88;1.55;;;;;;;;;;4951569;29;20058;-72
2022/07/29 12:02:43;;;;;;;2.85;1.20;;;;;;;;;;4951146;29;20423;-71
2022/07/29 12:05:17;;;;;;;2.45;1.30;;;;;;;;;;4951368;29;20503;-72
2022/07/29 12:08:13;;;;;;;4.22;1.35;;;;;;;;;;4951094;29;20043;-73
2022/07/29 12:10:43;;;;;;;4.47;1.67;;;;;;;;;;4951356;29;20051;-73
2022/07/29 12:13:17;;;;;;;3.08;1.30;;;;;;;;;;4933696;29;20051;-72
2022/07/29 12:15:58;;;;;;;1.00;0.70;;;;;;;;;;4951220;29;20407;-72
2022/07/29 12:18:30;;;;;;;7.38;1.83;;;;;;;;;;4950711;29;20400;-72
2022/07/29 12:21:04;;;;;;;1.20;0.80;;;;;;;;;;4951014;28;20043;-73
2022/07/29 12:23:34;;;;;;;1.92;1.20;;;;;;;;;;4950813;29;20049;-72
2022/07/29 12:26:06;;;;;;;4.10;1.20;;;;;;;;;;4950899;29;20518;-79
2022/07/29 12:28:38;;;;;;;1.77;0.90;;;;;;;;;;4951517;29;20074;-72
2022/07/29 12:31:16;;;;;;;2.72;1.33;;;;;;;;;;4950810;29;20128;-73
2022/07/29 12:34:06;;;;;;;0.65;0.52;;;;;;;;;;4950757;29;20051;-73
2022/07/29 12:36:37;;;;;;;3.38;1.23;;;;;;;;;;4950692;29;20051;-78
2022/07/29 12:39:09;;;;;;;8.70;5.85;;;;;;;;;;4950730;29;20053;-73
2022/07/29 12:41:39;;;;;;;1.85;0.95;;;;;;;;;;4950692;29;20411;-73
2022/07/29 12:44:09;;;;;;;2.30;0.93;;;;;;;;;;4950209;29;20051;-75
2022/07/29 12:46:39;;;;;;;5.07;1.67;;;;;;;;;;4951104;29;20047;-74
2022/07/29 12:49:09;;;;;;;3.75;1.20;;;;;;;;;;4951206;29;20455;-73
2022/07/29 12:51:40;;;;;;;0.90;0.50;;;;;;;;;;4950462;29;20392;-73
2022/07/29 12:54:15;;;;;;;0.95;0.65;;;;;;;;;;4950167;29;20048;-73
2022/07/29 12:56:45;;;;;;;1.10;0.80;;;;;;;;;;4950304;29;20058;-73
2022/07/29 12:59:20;;;;;;;1.52;1.05;;;;;;;;;;4950644;29;20062;-72
2022/07/29 13:01:52;;;;;;;1.30;1.00;;;;;;;;;;4950301;29;20093;-72
2022/07/29 13:04:30;;;;;;;2.08;1.40;;;;;;;;;;4950033;29;20070;-71
2022/07/29 13:07:05;;;;;;;2.90;1.75;;;;;;;;;;4950471;29;20058;-72
2022/07/29 13:09:40;;;;;;;1.50;0.85;;;;;;;;;;4950547;29;20039;-72
2022/07/29 13:12:12;;;;;;;1.35;0.90;;;;;;;;;;4950145;29;20414;-71
2022/07/29 13:14:48;;;;;;;2.33;1.50;;;;;;;;;;4950563;29;20054;-72
2022/07/29 13:17:18;;;;;;;;;;;;;;;;;;4949979;29;20051;-72
2022/07/29 13:19:53;;;;;;;2.58;1.05;;;;;;;;;;4950321;29;19922;-73
2022/07/29 13:22:24;;;;;;;1.30;0.80;;;;;;;;;;4949958;29;20047;-72
2022/07/29 13:24:56;;;;;;;1.63;0.80;;;;;;;;;;4933260;29;20054;-72
2022/07/29 13:27:29;;;;;;;2.33;0.93;;;;;;;;;;4949860;29;20403;-72
2022/07/29 13:30:01;;;;;;;1.75;1.00;;;;;;;;;;4949613;29;20039;-72
2022/07/29 13:32:33;;;;;;;1.95;1.00;;;;;;;;;;4949218;28;20051;-74
2022/07/29 13:35:06;;;;;;;3.85;1.00;;;;;;;;;;4950417;29;20055;-73
2022/07/29 13:37:39;;;;;;;9.60;0.93;;;;;;;;;;4950052;29;20051;-73
2022/07/29 13:40:11;;;;;;;1.00;0.88;;;;;;;;;;4949691;29;20043;-72
2022/07/29 13:42:42;;;;;;;0.77;0.75;;;;;;;;;;4949017;29;20506;-72
2022/07/29 13:45:12;;;;;;;4.45;0.68;;;;;;;;;;4949285;29;20047;-73
2022/07/29 13:47:42;;;;;;;;;;;;;;;;;;4957630;29;20051;-72
2022/07/29 13:50:16;;;;;;;;;;;;;;;;;;4965844;29;19929;-73
2022/07/29 13:52:48;;;;;;;1.42;0.80;;;;;;;;;;4969610;29;19928;-72
2022/07/29 13:55:18;;;;;;;2.22;0.68;;;;;;;;;;4959613;29;20078;-76
2022/07/29 13:57:49;;;;;;;1.13;0.70;;;;;;;;;;4950752;29;20043;-72
2022/07/29 14:00:19;;;;;;;;;;;;;;;;;;4933499;29;20055;-72
2022/07/29 14:02:48;;;;;;;2.38;0.60;;;;;;;;;;4949213;29;19933;-72
2022/07/29 14:05:18;;;;;;;;;;;;;;;;;;4949944;28;20047;-72
2022/07/29 14:07:47;;;;;;;4.43;0.70;;;;;;;;;;4949211;28;19926;-72
2022/07/29 14:10:17;;;;;;;0.20;0.20;;;;;;;;;;4949186;29;20058;-71
2022/07/29 14:12:47;;;;;;;0.90;0.68;;;;;;;;;;4948960;29;20069;-71
2022/07/29 14:15:17;;;;;;;;;;;;;;;;;;4949315;29;20043;-71
2022/07/29 14:17:46;;;;;;;1.20;0.70;;;;;;;;;;4948746;29;19926;-71
2022/07/29 14:20:16;;;;;;;;;;;;;;;;;;4949542;29;20503;-71
2022/07/29 14:22:46;;;;;;;1.30;0.80;;;;;;;;;;4949292;28;20429;-71
2022/07/29 14:25:15;;;;;;;;;;;;;;;;;;4949914;29;20051;-71
2022/07/29 14:27:48;;;;;;;1.35;0.70;;;;;;;;;;4948752;29;19926;-72
2022/07/29 14:30:18;;;;;;;;;;;;;;;;;;4949045;29;20074;-72
2022/07/29 14:32:47;;;;;;;1.10;0.52;;;;;;;;;;4948756;29;20366;-71
2022/07/29 14:35:17;;;;;;;;;;;;;;;;;;4949274;28;20062;-72
2022/07/29 14:37:46;;;;;;;5.68;0.60;;;;;;;;;;4931461;29;20461;-74
2022/07/29 14:40:16;;;;;;;;;;;;;;;;;;4949091;29;20058;-72
2022/07/29 14:42:45;;;;;;;1.05;0.60;;;;;;;;;;4948667;29;19926;-71
2022/07/29 14:45:15;;;;;;;0.77;0.40;;;;;;;;;;4951851;28;20507;-71
2022/07/29 14:47:44;;;;;;;;;;;;;;;;;;4953493;29;20353;-77
2022/07/29 14:50:14;;;;;;;2.05;0.60;;;;;;;;;;4952323;29;19927;-72
2022/07/29 14:53:02;;;;;;;2.72;0.57;;;;;;;;;;4952825;29;20051;-71
2022/07/29 14:55:32;;;;;;;0.50;0.40;;;;;;;;;;4935402;29;20498;-71
2022/07/29 14:58:02;;;;;;;2.15;1.17;;;;;;;;;;4935933;29;20507;-71
2022/07/29 15:00:40;;;;;;;1.98;0.88;;;;;;;;;;4936633;29;20511;-72
2022/07/29 15:03:11;;;;;;;1.17;0.80;;;;;;;;;;4952390;29;20522;-72
2022/07/29 15:05:52;;;;;;;1.65;0.73;;;;;;;;;;4951846;29;20050;-72
2022/07/29 15:08:22;;;;;;;1.85;0.68;;;;;;;;;;4952320;29;20051;-72
2022/07/29 15:10:54;;;;;;;1.48;0.93;;;;;;;;;;4953258;29;20515;-72
2022/07/29 15:13:24;;;;;;;1.40;0.75;;;;;;;;;;4952382;29;20051;-73
2022/07/29 15:15:55;;;;;;;1.92;1.00;;;;;;;;;;4951879;29;20058;-72
2022/07/29 15:18:28;;;;;;;5.72;2.53;;;;;;;;;;4951858;29;20047;-74
2022/07/29 15:21:00;;;;;;;2.15;0.90;;;;;;;;;;4951795;29;20503;-72
2022/07/29 15:23:30;;;;;;;1.65;1.23;;;;;;;;;;4951779;29;20073;-72
2022/07/29 15:25:59;;;;;;;;;;;;;;;;;;4952672;29;20050;-71
2022/07/29 15:28:29;;;;;;;1.33;0.77;;;;;;;;;;4951972;29;19933;-72
2022/07/29 15:30:59;;;;;;;1.75;0.63;;;;;;;;;;4951631;29;20054;-72
2022/07/29 15:33:28;;;;;;;;;;;;;;;;;;4952688;29;20128;-71
2022/07/29 15:35:58;;;;;;;1.20;0.80;;;;;;;;;;4934980;29;20309;-71